Time;durP1;ratioP1;P1;durP2;ratioP2;P2;SDS_P1;SDS_P2;PMS_P1;PMS_P2;Temp;Humidity;BMP_temperature;BMP_pressure;BME280_temperature;BME280_humidity;BME280_pressure;Samples;Min_cycle;Max_cycle;Signal;HPM_P1;HPM_P2
2022/03/24 00:01:15;;;;;;;125.72;53.52;;;;;;;1.67;50.95;99918.67;2182157;81;20962;-61
2022/03/24 00:04:17;;;;;;;119.70;48.33;;;;;;;1.50;51.08;99917.48;2163171;82;21038;-61
2022/03/24 00:07:18;;;;;;;129.12;53.98;;;;;;;1.38;51.23;99921.46;2182028;81;21526;-61
2022/03/24 00:10:19;;;;;;;151.40;63.73;;;;;;;1.31;51.61;99929.67;2182039;81;20990;-61
2022/03/24 00:13:21;;;;;;;168.35;69.30;;;;;;;1.29;51.49;99917.62;2182061;81;21430;-61
2022/03/24 00:16:23;;;;;;;176.70;73.15;;;;;;;1.31;51.87;99927.09;2182184;81;21010;-61
2022/03/24 00:19:26;;;;;;;180.15;76.80;;;;;;;1.34;51.92;99923.63;2182209;82;21475;-61
2022/03/24 00:22:28;;;;;;;189.28;82.22;;;;;;;1.36;51.91;99920.14;2181599;82;21013;-61
2022/03/24 00:25:30;;;;;;;195.57;82.73;;;;;;;1.36;52.27;99918.85;2182260;81;21004;-61
2022/03/24 00:28:31;;;;;;;185.70;80.35;;;;;;;1.36;52.27;99918.85;2181895;81;21319;-61
2022/03/24 00:31:33;;;;;;;191.43;84.07;;;;;;;1.37;51.88;99922.32;2182099;81;21557;-61
2022/03/24 00:34:34;;;;;;;193.25;82.17;;;;;;;1.33;52.03;99920.17;2182045;81;21195;-61
2022/03/24 00:37:36;;;;;;;190.97;84.42;;;;;;;1.34;52.38;99919.75;2182092;81;20990;-61
2022/03/24 00:40:38;;;;;;;182.37;81.25;;;;;;;1.36;52.32;99916.27;2182111;82;20939;-61
2022/03/24 00:43:41;;;;;;;;;;;;;;;1.37;52.34;99919.29;2184676;81;21007;-61
2022/03/24 00:46:42;;;;;;;169.85;73.12;;;;;;;1.31;52.42;99918.05;2182859;82;20156;-61
2022/03/24 00:49:43;;;;;;;172.02;70.90;;;;;;;1.28;53.04;99919.77;2182109;81;21021;-61
2022/03/24 00:52:45;;;;;;;159.12;68.28;;;;;;;1.25;53.68;99921.08;2182022;81;20987;-61
2022/03/24 00:55:47;;;;;;;;;;;;;;;1.18;53.41;99923.71;2184360;81;21049;-61
2022/03/24 00:58:49;;;;;;;141.18;61.37;;;;;;;1.04;53.35;99920.34;2181830;82;20120;-61
2022/03/24 01:01:50;;;;;;;145.60;63.90;;;;;;;0.88;53.50;99919.55;2182226;81;20939;-61
2022/03/24 01:04:52;;;;;;;112.12;47.73;;;;;;;0.76;53.66;99914.41;2182107;81;20975;-61
2022/03/24 01:07:53;;;;;;;114.33;48.23;;;;;;;0.68;53.70;99919.17;2182381;81;21062;-61
2022/03/24 01:10:55;;;;;;;124.07;54.18;;;;;;;0.62;53.76;99926.95;2181722;81;21411;-61
2022/03/24 01:13:57;;;;;;;137.00;61.13;;;;;;;0.57;53.89;99921.37;2182454;81;20990;-61
2022/03/24 01:16:58;;;;;;;144.10;63.98;;;;;;;0.56;54.49;99921.81;2182071;81;21020;-60
2022/03/24 01:20:00;;;;;;;155.23;69.20;;;;;;;0.62;54.12;99920.49;2182299;81;21509;-61
2022/03/24 01:23:01;;;;;;;165.43;75.20;;;;;;;0.67;54.08;99920.47;2182077;81;21007;-61
2022/03/24 01:26:05;;;;;;;184.22;80.00;;;;;;;0.70;54.13;99916.58;2181937;81;21592;-61
2022/03/24 01:29:08;;;;;;;175.75;80.30;;;;;;;0.61;53.95;99917.47;2163341;82;21557;-61
2022/03/24 01:32:10;;;;;;;161.65;71.70;;;;;;;0.59;53.94;99920.50;2163625;82;20974;-61
2022/03/24 01:35:12;;;;;;;159.95;70.30;;;;;;;0.56;53.97;99920.52;2182130;82;20997;-61
2022/03/24 01:38:16;;;;;;;151.90;65.40;;;;;;;0.57;54.26;99918.78;2182277;81;20998;-61
2022/03/24 01:41:19;;;;;;;151.42;66.57;;;;;;;0.54;54.17;99914.92;2163377;82;20951;-61
2022/03/24 01:44:21;;;;;;;149.60;64.00;;;;;;;0.46;54.29;99910.64;2159752;81;21022;-61
2022/03/24 01:47:22;;;;;;;;;;;;;;;0.39;54.48;99911.93;2174820;82;21070;-61
2022/03/24 01:50:24;;;;;;;150.00;64.53;;;;;;;0.37;54.61;99907.22;2172056;82;20151;-61
2022/03/24 01:53:25;;;;;;;140.60;63.68;;;;;;;0.37;54.71;99915.81;2172109;82;21137;-61
2022/03/24 01:56:27;;;;;;;139.37;62.30;;;;;;;0.33;54.81;99918.84;2171912;82;21082;-61
2022/03/24 01:59:29;;;;;;;151.70;60.23;;;;;;;0.30;54.80;99912.40;2172431;82;21034;-61
2022/03/24 02:02:30;;;;;;;127.07;55.92;;;;;;;0.24;54.83;99917.55;2172344;82;21058;-61
2022/03/24 02:05:31;;;;;;;120.20;52.80;;;;;;;0.33;55.02;99916.26;2172299;82;21046;-61
2022/03/24 02:08:34;;;;;;;126.45;54.27;;;;;;;0.25;55.04;99924.87;2172022;82;21066;-61
2022/03/24 02:11:36;;;;;;;154.63;62.03;;;;;;;0.18;55.20;99920.59;2172147;82;21002;-61
2022/03/24 02:14:37;;;;;;;134.15;57.98;;;;;;;0.21;55.44;99920.14;2172185;82;21568;-61
2022/03/24 02:17:41;;;;;;;131.25;57.78;;;;;;;0.35;54.95;99916.25;2172331;82;21070;-61
2022/03/24 02:20:42;;;;;;;115.75;51.33;;;;;;;0.21;55.08;99917.56;2161673;82;21002;-61
2022/03/24 02:23:44;;;;;;;94.40;43.15;;;;;;;0.12;55.57;99915.84;2172211;82;21513;-61
2022/03/24 02:26:45;;;;;;;95.83;43.93;;;;;;;0.11;55.89;99917.14;2172296;82;21069;-61
2022/03/24 02:29:47;;;;;;;100.62;46.13;;;;;;;0.16;56.12;99914.14;2172034;82;21282;-61
2022/03/24 02:32:48;;;;;;;101.85;46.25;;;;;;;0.14;56.45;99916.73;2172531;82;21073;-60
2022/03/24 02:35:50;;;;;;;108.25;47.00;;;;;;;0.13;55.98;99917.98;2172081;82;21039;-61
2022/03/24 02:38:51;;;;;;;103.00;45.40;;;;;;;0.06;56.18;99919.73;2172156;82;20985;-61
2022/03/24 02:41:53;;;;;;;93.50;43.50;;;;;;;-0.03;56.04;99920.60;2172404;82;20996;-61
2022/03/24 02:44:56;;;;;;;93.10;44.00;;;;;;;-0.03;56.30;99923.19;2161206;82;21537;-61
2022/03/24 02:47:58;;;;;;;91.03;42.37;;;;;;;-0.01;56.68;99933.05;2172268;82;21019;-61
2022/03/24 02:51:01;;;;;;;94.15;44.83;;;;;;;0.01;56.80;99925.75;2172226;82;21114;-60
2022/03/24 02:54:04;;;;;;;90.25;40.45;;;;;;;0.02;56.66;99931.36;2172158;82;21010;-61
2022/03/24 02:57:05;;;;;;;;;;;;;;;0.05;56.61;99927.03;2174578;82;21570;-61
2022/03/24 03:00:07;;;;;;;104.03;44.55;;;;;;;0.05;57.00;99927.03;2171993;82;20149;-61
2022/03/24 03:03:10;;;;;;;102.93;44.50;;;;;;;0.04;57.20;99929.62;2172528;82;21538;-61
2022/03/24 03:06:13;;;;;;;104.92;44.98;;;;;;;0.07;57.28;99927.03;2172395;82;21540;-61
2022/03/24 03:09:17;;;;;;;171.15;67.17;;;;;;;0.11;57.44;99933.91;2172096;82;20975;-61
2022/03/24 03:12:17;;;;;;;169.55;64.72;;;;;;;0.21;57.27;99931.75;2161757;82;20978;-61
2022/03/24 03:15:19;;;;;;;192.00;71.83;;;;;;;0.19;57.37;99930.03;2172448;82;21042;-61
2022/03/24 03:18:20;;;;;;;224.27;80.85;;;;;;;0.29;57.59;99931.31;2171991;82;21050;-61
2022/03/24 03:21:22;;;;;;;96.30;40.98;;;;;;;0.38;57.13;99935.60;2171998;82;21593;-61
2022/03/24 03:24:23;;;;;;;93.85;39.55;;;;;;;0.43;57.08;99939.46;2171905;82;20998;-61
2022/03/24 03:27:26;;;;;;;84.83;37.87;;;;;;;0.49;56.80;99942.05;2172230;82;21557;-60
2022/03/24 03:30:27;;;;;;;89.10;37.53;;;;;;;0.50;56.98;99939.47;2172121;82;21069;-61
2022/03/24 03:33:29;;;;;;;88.92;37.00;;;;;;;0.50;56.75;99950.20;2172237;82;21518;-61
2022/03/24 03:36:31;;;;;;;;;;;;;;;0.45;57.01;99945.05;2174834;82;21034;-61
2022/03/24 03:39:34;;;;;;;91.30;36.75;;;;;;;0.42;56.91;99950.23;2172514;81;20132;-61
2022/03/24 03:42:35;;;;;;;;;;;;;;;0.34;56.98;99954.53;2174877;82;21077;-61
2022/03/24 03:45:37;;;;;;;87.25;36.00;;;;;;;0.26;57.17;99958.42;2171820;81;20145;-61
2022/03/24 03:48:38;;;;;;;88.97;37.10;;;;;;;0.09;56.93;99964.03;2172317;82;21085;-60
2022/03/24 03:51:40;;;;;;;87.30;38.90;;;;;;;-0.10;57.16;99965.72;2171935;82;21133;-61
2022/03/24 03:54:43;;;;;;;101.42;42.60;;;;;;;-0.20;57.34;99974.75;2172523;82;21098;-60
2022/03/24 03:57:44;;;;;;;90.55;37.40;;;;;;;-0.29;57.42;99969.56;2172224;82;21063;-60
2022/03/24 04:03:49;;;;;;;79.53;34.43;;;;;;;-0.37;57.95;99976.02;2162110;82;21010;-61
2022/03/24 04:06:51;;;;;;;71.85;30.62;;;;;;;-0.30;57.87;99982.45;2172085;82;21063;-61
2022/03/24 04:09:52;;;;;;;78.25;32.83;;;;;;;-0.22;58.22;99988.05;2171836;82;21106;-60
2022/03/24 04:12:55;;;;;;;70.45;31.00;;;;;;;-0.17;58.17;99985.51;2172220;82;21054;-61
2022/03/24 04:15:56;;;;;;;71.97;32.30;;;;;;;-0.10;58.22;99976.92;2172243;82;21544;-60
2022/03/24 04:18:58;;;;;;;73.28;32.28;;;;;;;-0.09;58.26;99981.20;2172226;82;21030;-60
2022/03/24 04:22:02;;;;;;;68.75;30.90;;;;;;;-0.10;58.04;99983.37;2172190;82;21019;-60
2022/03/24 04:25:05;;;;;;;77.32;31.37;;;;;;;-0.15;58.05;99986.36;2171955;82;21093;-61
2022/03/24 04:28:06;;;;;;;73.33;32.45;;;;;;;-0.16;58.19;99985.06;2172075;82;21110;-60
2022/03/24 04:31:08;;;;;;;75.67;32.97;;;;;;;-0.20;58.63;99991.95;2172310;82;21538;-61
2022/03/24 04:34:09;;;;;;;81.75;33.60;;;;;;;-0.21;58.64;99992.81;2172298;82;20939;-61
2022/03/24 04:37:11;;;;;;;86.95;35.45;;;;;;;-0.21;58.56;99991.52;2172434;82;21058;-61
2022/03/24 04:40:12;;;;;;;128.45;49.18;;;;;;;-0.18;58.59;99996.67;2172415;82;21074;-60
2022/03/24 04:43:15;;;;;;;129.85;50.08;;;;;;;-0.19;58.53;99994.95;2172403;82;21009;-60
2022/03/24 04:46:16;;;;;;;91.90;36.73;;;;;;;-0.18;58.38;99998.81;2172162;81;21042;-61
2022/03/24 04:49:18;;;;;;;83.70;32.70;;;;;;;-0.19;58.15;99998.81;2172371;82;20990;-60
2022/03/24 04:52:20;;;;;;;82.95;36.40;;;;;;;-0.31;58.12;100009.13;2172670;82;21046;-60
2022/03/24 04:55:21;;;;;;;95.53;37.77;;;;;;;-0.37;58.51;100001.80;2172525;82;21006;-60
2022/03/24 04:58:23;;;;;;;72.67;33.87;;;;;;;-0.35;58.38;99997.48;2172309;82;21530;-60
2022/03/24 05:01:24;;;;;;;88.72;35.28;;;;;;;-0.52;58.70;100006.90;2172153;82;21035;-60
2022/03/24 05:04:26;;;;;;;84.62;37.20;;;;;;;-0.59;59.08;100006.45;2172073;82;21561;-61
2022/03/24 05:07:27;;;;;;;119.33;46.77;;;;;;;-0.61;58.91;100003.02;2172247;82;21014;-60
2022/03/24 05:10:28;;;;;;;114.20;44.53;;;;;;;-0.55;59.20;100001.73;2172112;82;20994;-60
2022/03/24 05:13:30;;;;;;;108.78;40.20;;;;;;;-0.40;59.05;100004.81;2172257;82;20943;-60
2022/03/24 05:16:31;;;;;;;98.42;37.85;;;;;;;-0.29;58.62;100005.66;2172143;82;20982;-60
2022/03/24 05:19:34;;;;;;;102.17;40.03;;;;;;;-0.24;58.63;100005.70;2172276;82;21042;-60
2022/03/24 05:22:36;;;;;;;101.75;40.50;;;;;;;-0.14;58.87;100001.39;2172103;82;21529;-60
2022/03/24 05:25:37;;;;;;;103.55;40.90;;;;;;;-0.02;58.41;100013.87;2172487;82;20994;-60
2022/03/24 05:28:39;;;;;;;104.77;41.70;;;;;;;0.07;58.63;100007.89;2172191;82;21125;-61
2022/03/24 05:31:41;;;;;;;178.07;66.53;;;;;;;0.36;58.69;100010.91;2172584;82;21232;-61
2022/03/24 05:34:44;;;;;;;136.88;60.17;;;;;;;0.62;58.42;100010.88;2171999;82;21321;-61
2022/03/24 05:37:45;;;;;;;104.43;43.50;;;;;;;0.87;58.33;100010.81;2172070;82;20966;-61
2022/03/24 05:40:47;;;;;;;122.78;49.93;;;;;;;1.07;57.99;100013.34;2172078;82;21066;-61
2022/03/24 05:46:52;;;;;;;224.95;93.05;;;;;;;1.61;57.85;100014.41;2170486;81;21018;-61
2022/03/24 05:49:54;;;;;;;255.55;92.00;;;;;;;1.84;57.54;100025.04;2189033;81;21017;-61
2022/03/24 05:52:56;;;;;;;185.50;74.10;;;;;;;2.20;57.20;100024.39;2189042;81;20998;-61
2022/03/24 05:55:57;;;;;;;141.22;56.68;;;;;;;2.40;57.31;100028.13;2189014;81;20986;-61
2022/03/24 05:58:59;;;;;;;122.25;52.88;;;;;;;2.64;57.50;100033.48;2188759;81;21033;-61
2022/03/24 06:02:00;;;;;;;95.03;43.05;;;;;;;3.03;57.23;100027.92;2188720;81;21063;-61
2022/03/24 06:05:05;;;;;;;92.72;41.13;;;;;;;3.41;56.67;100025.34;2188805;81;20991;-61
2022/03/24 06:08:07;;;;;;;95.87;42.23;;;;;;;3.79;56.72;100033.04;2171933;81;21041;-61
2022/03/24 06:11:09;;;;;;;82.72;37.73;;;;;;;4.12;55.94;100033.01;2188751;81;20998;-60
2022/03/24 06:14:12;;;;;;;80.97;36.73;;;;;;;4.34;55.27;100033.97;2189024;81;21117;-61
2022/03/24 06:17:16;;;;;;;72.97;34.67;;;;;;;4.46;55.45;100029.85;2171418;81;21014;-61
2022/03/24 06:20:17;;;;;;;74.17;34.35;;;;;;;4.75;54.75;100030.24;2188764;81;21010;-61
2022/03/24 06:23:19;;;;;;;73.00;34.93;;;;;;;5.02;54.51;100040.58;2188898;81;21085;-61
2022/03/24 06:26:21;;;;;;;70.42;34.95;;;;;;;5.41;55.27;100047.19;2188851;81;21025;-61
2022/03/24 06:29:22;;;;;;;72.32;34.15;;;;;;;5.75;54.40;100046.91;2188664;81;21030;-60
2022/03/24 06:32:24;;;;;;;71.50;32.97;;;;;;;6.02;54.07;100046.78;2188879;81;21599;-60
2022/03/24 06:35:25;;;;;;;67.65;31.52;;;;;;;6.28;53.73;100042.71;2188653;81;21038;-60
2022/03/24 06:38:27;;;;;;;66.17;30.68;;;;;;;6.56;52.65;100047.66;2188822;81;21472;-60
2022/03/24 06:41:28;;;;;;;67.25;31.77;;;;;;;6.60;51.87;100051.05;2188785;81;20978;-61
2022/03/24 06:44:30;;;;;;;64.13;29.93;;;;;;;6.79;51.97;100057.95;2188905;81;21543;-61
2022/03/24 06:47:31;;;;;;;63.03;31.57;;;;;;;6.80;51.22;100057.53;2182509;81;20978;-61
2022/03/24 06:50:33;;;;;;;63.78;30.20;;;;;;;6.87;51.21;100053.86;2181974;81;20982;-60
2022/03/24 06:53:34;;;;;;;55.20;28.12;;;;;;;6.89;51.22;100055.97;2182060;81;20982;-60
2022/03/24 06:56:37;;;;;;;56.90;28.05;;;;;;;7.20;51.45;100055.16;2181815;82;21109;-60
2022/03/24 06:59:39;;;;;;;56.98;27.42;;;;;;;7.49;50.58;100054.33;2181927;82;21001;-60
2022/03/24 07:02:41;;;;;;;53.53;26.30;;;;;;;7.72;49.43;100062.80;2182455;82;21516;-61
2022/03/24 07:05:42;;;;;;;58.17;28.00;;;;;;;7.73;48.24;100067.56;2182185;81;21017;-60
2022/03/24 07:08:44;;;;;;;51.83;26.07;;;;;;;7.67;47.73;100061.22;2182143;82;21466;-60
2022/03/24 07:11:45;;;;;;;51.80;26.02;;;;;;;7.67;48.07;100067.75;2182148;81;21026;-60
2022/03/24 07:14:47;;;;;;;51.37;25.43;;;;;;;7.82;47.09;100062.55;2181957;81;21065;-60
2022/03/24 07:17:49;;;;;;;49.63;26.33;;;;;;;7.85;47.38;100067.67;2182291;81;20982;-60
2022/03/24 07:20:50;;;;;;;48.95;23.90;;;;;;;7.96;47.71;100069.05;2181972;81;21162;-61
2022/03/24 07:23:52;;;;;;;50.85;25.75;;;;;;;8.14;47.45;100068.08;2182125;81;20998;-61
2022/03/24 07:26:55;;;;;;;50.55;23.75;;;;;;;8.33;46.35;100069.22;2162712;82;20990;-60
2022/03/24 07:29:57;;;;;;;48.48;22.93;;;;;;;8.49;46.14;100056.97;2182248;81;20994;-60
2022/03/24 07:32:58;;;;;;;47.58;23.30;;;;;;;8.76;46.04;100055.66;2181943;81;20969;-60
2022/03/24 07:36:00;;;;;;;48.83;22.52;;;;;;;9.00;45.76;100054.80;2181950;81;21466;-61
2022/03/24 07:39:03;;;;;;;45.10;21.10;;;;;;;9.19;45.10;100058.96;2182161;81;21021;-60
2022/03/24 07:42:04;;;;;;;43.25;20.85;;;;;;;9.41;45.68;100064.73;2182169;82;21034;-60
2022/03/24 07:45:06;;;;;;;41.58;21.07;;;;;;;9.70;44.30;100060.17;2181438;81;21033;-60
2022/03/24 07:48:09;;;;;;;41.75;21.07;;;;;;;9.88;43.99;100062.09;2172099;82;21058;-61
2022/03/24 07:51:11;;;;;;;41.25;19.73;;;;;;;10.17;44.40;100060.11;2171981;82;21086;-60
2022/03/24 07:54:12;;;;;;;40.83;18.95;;;;;;;10.46;41.82;100061.17;2172137;82;21007;-61
2022/03/24 07:57:14;;;;;;;37.58;18.62;;;;;;;10.58;42.73;100056.74;2171937;82;21156;-61
2022/03/24 08:00:15;;;;;;;34.85;16.30;;;;;;;10.75;41.67;100059.98;2172257;82;21058;-61
2022/03/24 08:03:17;;;;;;;36.53;16.37;;;;;;;10.86;41.09;100050.33;2172289;82;20981;-61
2022/03/24 08:06:18;;;;;;;37.13;16.43;;;;;;;10.99;40.58;100058.09;2172428;82;21067;-60
2022/03/24 08:09:20;;;;;;;36.53;16.75;;;;;;;11.21;40.69;100053.22;2172727;82;21545;-61
2022/03/24 08:12:21;;;;;;;30.70;14.17;;;;;;;11.37;40.13;100058.16;2172460;82;21031;-61
2022/03/24 08:15:23;;;;;;;32.83;14.85;;;;;;;11.41;37.95;100061.05;2172196;82;21746;-61
2022/03/24 08:18:24;;;;;;;29.12;13.35;;;;;;;11.33;38.93;100057.91;2172216;82;21041;-61
2022/03/24 08:21:26;;;;;;;29.23;12.35;;;;;;;11.59;38.76;100063.33;2172437;82;21025;-61
2022/03/24 08:24:27;;;;;;;29.63;12.03;;;;;;;11.73;38.66;100065.77;2172445;82;21017;-61
2022/03/24 08:27:29;;;;;;;27.93;12.28;;;;;;;11.91;38.11;100052.22;2172374;82;21077;-61
2022/03/24 08:30:30;;;;;;;31.10;12.45;;;;;;;12.13;37.61;100061.31;2172567;82;21038;-61
2022/03/24 08:33:32;;;;;;;30.48;12.05;;;;;;;12.24;37.93;100059.46;2172399;82;21070;-61
2022/03/24 08:36:34;;;;;;;28.38;11.38;;;;;;;12.50;35.23;100054.70;2172412;82;21041;-60
2022/03/24 08:39:35;;;;;;;27.13;10.95;;;;;;;12.50;36.29;100052.08;2172095;82;21083;-61
2022/03/24 08:42:37;;;;;;;26.70;10.65;;;;;;;12.50;34.78;100054.70;2172788;82;21436;-61
2022/03/24 08:45:38;;;;;;;29.20;11.63;;;;;;;12.48;33.99;100054.34;2173679;81;21030;-61
2022/03/24 08:48:40;;;;;;;29.00;12.10;;;;;;;12.74;34.95;100052.64;2182346;81;21473;-62
2022/03/24 08:51:41;;;;;;;28.83;10.53;;;;;;;12.93;35.35;100051.23;2182370;81;20986;-61
2022/03/24 08:54:43;;;;;;;28.60;12.15;;;;;;;13.08;34.83;100049.60;2182359;81;21481;-61
2022/03/24 08:57:44;;;;;;;28.63;12.57;;;;;;;13.33;34.55;100054.42;2182517;81;21018;-61
2022/03/24 09:00:46;;;;;;;25.37;10.28;;;;;;;13.26;34.90;100048.64;2182243;81;21023;-61
2022/03/24 09:03:49;;;;;;;26.07;10.20;;;;;;;13.52;35.51;100047.77;2182448;82;20994;-61
2022/03/24 09:06:51;;;;;;;26.10;10.18;;;;;;;13.62;33.74;100045.45;2182198;81;21049;-61
2022/03/24 09:09:53;;;;;;;25.32;9.85;;;;;;;14.03;35.00;100043.65;2182117;81;21628;-61
2022/03/24 09:12:55;;;;;;;25.80;9.33;;;;;;;14.53;34.20;100040.39;2181820;81;21096;-61
2022/03/24 09:15:57;;;;;;;23.27;8.65;;;;;;;14.62;32.91;100042.51;2182219;81;20990;-61
2022/03/24 09:18:58;;;;;;;24.55;8.80;;;;;;;14.88;33.54;100044.95;2182302;82;21045;-61
2022/03/24 09:22:00;;;;;;;25.83;9.10;;;;;;;14.86;31.92;100035.42;2182341;81;20956;-61
2022/03/24 09:25:01;;;;;;;24.13;8.93;;;;;;;14.82;32.29;100039.17;2182563;81;21525;-62
2022/03/24 09:28:03;;;;;;;25.60;8.90;;;;;;;14.82;31.45;100021.53;2182264;81;20989;-61
2022/03/24 09:31:05;;;;;;;22.20;8.45;;;;;;;14.69;29.24;100039.05;2182144;81;22312;-61
2022/03/24 09:34:08;;;;;;;23.32;8.20;;;;;;;14.62;30.94;100039.88;2182134;82;20947;-61
2022/03/24 09:37:10;;;;;;;24.95;8.80;;;;;;;14.45;30.72;100045.25;2182108;82;21019;-62
2022/03/24 09:40:12;;;;;;;25.32;9.13;;;;;;;14.45;30.57;100034.70;2182199;81;21029;-61
2022/03/24 09:43:13;;;;;;;22.75;7.08;;;;;;;14.45;30.57;100034.70;2182189;81;21360;-61
2022/03/24 09:46:15;;;;;;;21.90;7.70;;;;;;;14.73;29.82;100045.86;2182150;81;21513;-61
2022/03/24 09:49:17;;;;;;;22.25;6.70;;;;;;;14.72;28.85;100041.50;2182103;81;21708;-61
2022/03/24 09:52:19;;;;;;;21.17;6.70;;;;;;;14.46;27.91;100040.36;2182680;81;21501;-61
2022/03/24 09:55:20;;;;;;;22.73;6.93;;;;;;;14.30;29.88;100048.31;2182444;81;21013;-62
2022/03/24 09:58:21;;;;;;;26.53;7.20;;;;;;;14.38;29.70;100042.98;2182468;81;21454;-61
2022/03/24 10:01:25;;;;;;;22.30;6.85;;;;;;;14.42;28.85;100044.12;2162758;82;21041;-61
2022/03/24 10:04:26;;;;;;;24.92;7.10;;;;;;;14.41;28.54;100048.55;2182254;81;20990;-61
2022/03/24 10:07:29;;;;;;;19.83;6.67;;;;;;;14.40;29.04;100037.61;2182309;81;20990;-61
2022/03/24 10:10:34;;;;;;;22.93;7.03;;;;;;;14.80;30.34;100034.47;2182051;82;21017;-61
2022/03/24 10:13:34;;;;;;;23.18;7.35;;;;;;;15.00;28.36;100022.23;2162341;82;21517;-61
2022/03/24 10:16:39;;;;;;;21.47;7.27;;;;;;;14.79;28.31;100030.95;2182412;81;20974;-61
2022/03/24 10:19:39;;;;;;;21.42;7.40;;;;;;;15.05;30.02;100032.03;2161853;82;21002;-61
2022/03/24 10:22:41;;;;;;;23.33;7.57;;;;;;;15.14;29.59;100018.76;2182398;81;21497;-61
2022/03/24 10:25:45;;;;;;;21.90;7.90;;;;;;;15.49;28.89;100018.36;2182487;81;20982;-61
2022/03/24 10:28:45;;;;;;;21.65;7.03;;;;;;;15.53;28.00;100016.36;2161752;82;21050;-61
2022/03/24 10:31:47;;;;;;;21.93;7.67;;;;;;;15.63;28.84;100013.99;2182493;81;21445;-61
2022/03/24 10:34:50;;;;;;;21.40;7.03;;;;;;;15.89;28.20;100013.22;2181982;81;21053;-60
2022/03/24 10:37:52;;;;;;;23.60;7.45;;;;;;;15.80;28.32;100009.83;2161950;82;20994;-61
2022/03/24 10:40:53;;;;;;;21.15;6.75;;;;;;;15.89;27.41;100014.55;2182272;81;21489;-61
2022/03/24 10:43:54;;;;;;;21.33;5.97;;;;;;;15.88;27.36;100016.81;2182510;81;20982;-61
2022/03/24 10:46:56;;;;;;;24.32;7.17;;;;;;;15.86;26.89;100012.56;2177788;81;22203;-61
2022/03/24 10:49:58;;;;;;;21.63;6.93;;;;;;;15.94;28.22;99999.20;2172553;81;20960;-61
2022/03/24 10:52:59;;;;;;;20.57;7.27;;;;;;;16.37;26.93;99988.93;2172455;81;21432;-61
2022/03/24 10:56:01;;;;;;;22.73;6.45;;;;;;;16.43;26.93;99990.32;2172303;82;21035;-61
2022/03/24 10:59:02;;;;;;;21.52;6.87;;;;;;;16.40;26.38;99998.47;2172231;82;21090;-62
2022/03/24 11:02:04;;;;;;;23.20;7.57;;;;;;;16.28;25.95;99993.03;2172324;81;21126;-62
2022/03/24 11:05:12;;;;;;;21.70;6.97;;;;;;;16.05;27.77;99981.81;2172617;82;20979;-62
2022/03/24 11:08:09;;;;;;;23.12;7.50;;;;;;;16.07;26.52;99994.45;2161768;82;21006;-61
2022/03/24 11:11:10;;;;;;;23.25;7.37;;;;;;;16.04;26.80;99990.20;2172421;82;21042;-62
2022/03/24 11:14:12;;;;;;;22.80;6.70;;;;;;;16.13;27.85;99978.65;2172108;81;21067;-62
2022/03/24 11:17:13;;;;;;;25.30;6.90;;;;;;;16.26;27.36;99980.39;2172529;81;21077;-62
2022/03/24 11:20:16;;;;;;;22.93;6.55;;;;;;;16.49;27.79;99977.98;2171979;81;21408;-62
2022/03/24 11:23:18;;;;;;;;;;;;;;;16.26;27.54;99978.20;2174886;82;21043;-61
2022/03/24 11:26:19;;;;;;;22.37;7.15;;;;;;;16.17;27.09;99975.69;2171988;82;20149;-61
2022/03/24 11:29:21;;;;;;;24.25;6.45;;;;;;;16.16;26.91;99964.75;2172107;81;21090;-62
2022/03/24 11:32:22;;;;;;;20.12;5.67;;;;;;;16.15;27.10;99970.98;2172259;82;21058;-61
2022/03/24 11:35:24;;;;;;;20.23;5.78;;;;;;;16.09;26.83;99971.37;2172537;81;21544;-61
2022/03/24 11:38:25;;;;;;;20.70;6.67;;;;;;;15.88;26.23;99967.86;2172164;81;21042;-60
2022/03/24 11:41:27;;;;;;;22.20;6.60;;;;;;;15.80;26.83;99964.02;2172519;81;21465;-61
2022/03/24 11:44:28;;;;;;;21.40;5.80;;;;;;;15.93;27.51;99956.52;2172182;81;21046;-61
2022/03/24 11:47:30;;;;;;;20.72;6.03;;;;;;;16.05;27.29;99959.31;2172080;81;21543;-61
2022/03/24 11:50:31;;;;;;;19.73;6.08;;;;;;;16.10;28.01;99952.77;2172295;81;20939;-61
2022/03/24 11:53:35;;;;;;;19.77;5.22;;;;;;;16.31;27.46;99948.31;2172075;82;21581;-61
2022/03/24 11:56:36;;;;;;;20.25;5.62;;;;;;;16.12;26.75;99948.70;2171916;82;21078;-61
2022/03/24 11:59:38;;;;;;;20.60;5.75;;;;;;;15.98;26.91;99931.56;2172362;82;20978;-61
2022/03/24 12:02:40;;;;;;;21.35;5.85;;;;;;;16.24;27.55;99950.52;2172124;81;21018;-61
2022/03/24 12:05:41;;;;;;;19.83;6.00;;;;;;;16.25;26.51;99931.04;2172268;81;21046;-61
2022/03/24 12:08:43;;;;;;;19.50;5.12;;;;;;;16.10;26.54;99936.89;2171827;81;21050;-61
2022/03/24 12:11:44;;;;;;;20.90;5.87;;;;;;;16.09;27.19;99947.55;2172403;81;21050;-61
2022/03/24 12:14:47;;;;;;;20.35;5.80;;;;;;;16.09;27.19;99947.55;2172234;82;21051;-61
2022/03/24 12:17:49;;;;;;;17.60;5.53;;;;;;;16.25;26.82;99940.30;2172199;82;20970;-61
2022/03/24 12:20:50;;;;;;;19.98;6.05;;;;;;;16.32;27.02;99931.94;2172300;81;21098;-62
2022/03/24 12:23:51;;;;;;;17.67;5.25;;;;;;;16.34;26.35;99926.92;2172235;81;21090;-61
2022/03/24 12:26:53;;;;;;;19.90;5.65;;;;;;;16.55;26.86;99928.59;2172258;81;21058;-61
2022/03/24 12:29:54;;;;;;;20.75;5.45;;;;;;;16.99;25.96;99925.65;2172377;81;21545;-61
2022/03/24 12:32:56;;;;;;;20.23;5.95;;;;;;;16.97;25.83;99929.73;2172287;81;20978;-61
2022/03/24 12:35:57;;;;;;;19.32;6.10;;;;;;;16.99;26.09;99940.22;2172467;82;21446;-61
2022/03/24 12:38:59;;;;;;;18.90;5.83;;;;;;;16.99;26.54;99925.16;2172227;81;21009;-61
2022/03/24 12:42:00;;;;;;;18.73;5.53;;;;;;;17.18;26.56;99920.72;2172172;81;21050;-61
2022/03/24 12:45:03;;;;;;;22.32;5.83;;;;;;;17.20;26.07;99917.98;2172343;82;21082;-61
2022/03/24 12:48:05;;;;;;;19.42;5.60;;;;;;;17.36;26.55;99910.62;2178229;81;21018;-61
2022/03/24 12:51:06;;;;;;;23.57;6.03;;;;;;;17.46;25.64;99922.25;2181945;81;21016;-61
2022/03/24 12:54:08;;;;;;;21.48;5.62;;;;;;;17.22;25.93;99920.04;2182325;82;21030;-61
2022/03/24 12:57:10;;;;;;;21.50;6.05;;;;;;;17.14;26.00;99914.80;2182313;81;20943;-61
2022/03/24 13:00:11;;;;;;;21.57;5.95;;;;;;;17.33;26.03;99916.63;2182242;81;21552;-61
2022/03/24 13:03:13;;;;;;;18.62;5.95;;;;;;;17.27;26.41;99922.73;2182243;81;21013;-61
2022/03/24 13:06:14;;;;;;;20.23;6.40;;;;;;;17.20;26.17;99929.43;2182477;81;21492;-61
2022/03/24 13:09:16;;;;;;;19.70;6.15;;;;;;;16.99;26.37;99923.84;2181829;81;21010;-62
2022/03/24 13:12:18;;;;;;;19.73;5.70;;;;;;;16.98;26.31;99906.23;2182209;81;21541;-61
2022/03/24 13:15:19;;;;;;;18.62;5.30;;;;;;;16.93;25.82;99906.56;2182226;82;20973;-61
2022/03/24 13:18:22;;;;;;;17.98;5.65;;;;;;;16.74;26.77;99908.30;2182354;81;21549;-61
2022/03/24 13:21:24;;;;;;;20.17;5.35;;;;;;;16.58;25.96;99912.98;2182192;81;21073;-61
2022/03/24 13:24:25;;;;;;;21.12;5.33;;;;;;;16.70;26.46;99904.66;2182590;81;21499;-61
2022/03/24 13:27:27;;;;;;;20.23;5.70;;;;;;;16.73;26.47;99905.27;2182188;82;21010;-61
2022/03/24 13:30:29;;;;;;;21.15;5.97;;;;;;;16.67;26.13;99914.14;2182486;81;21448;-61
2022/03/24 13:33:31;;;;;;;19.25;6.00;;;;;;;16.50;26.56;99898.92;2182327;81;21002;-61
2022/03/24 13:36:32;;;;;;;;;;;;;;;16.50;26.68;99902.89;2184951;81;21008;-61
2022/03/24 13:39:34;;;;;;;22.00;6.25;;;;;;;16.42;25.87;99889.32;2182053;82;20129;-61
2022/03/24 13:42:35;;;;;;;18.77;5.30;;;;;;;16.50;26.20;99883.52;2182430;81;21492;-61
2022/03/24 13:45:37;;;;;;;18.73;5.65;;;;;;;16.82;25.93;99892.34;2182117;81;20986;-61
2022/03/24 13:48:39;;;;;;;18.82;5.08;;;;;;;16.83;26.22;99880.80;2181784;81;20994;-62
2022/03/24 13:51:41;;;;;;;17.67;5.25;;;;;;;16.76;25.53;99866.64;2182282;81;20971;-61
2022/03/24 13:54:42;;;;;;;22.20;6.20;;;;;;;16.72;25.55;99884.19;2182567;81;21469;-61
2022/03/24 13:57:44;;;;;;;22.22;5.53;;;;;;;16.70;26.21;99872.37;2182298;81;20978;-61
2022/03/24 14:00:46;;;;;;;22.27;6.40;;;;;;;16.76;26.05;99883.86;2182667;81;21434;-61
2022/03/24 14:03:49;;;;;;;19.95;5.80;;;;;;;16.72;25.75;99877.11;2182135;81;20974;-62